AYNZ/LAE METAR and TAF weather

Enter ICAO airport designator
Station Type Date Time Source
AYNZ METAR 2019/04/25 20:00 UTC NOAA

AYNZ 252000Z VRB03KT 9999 FEW015 SCT045 25/23 Q1008=


Station Type Date Time Source
AYNZ Decoded METAR 2019/04/25 20:00 UTC NOAA

Station name not available
Apr 25, 2019 - 04:00 PM EDT / 2019.04.25 2000 UTC
Wind: Variable at 3 MPH (3 KT):0
Visibility: greater than 7 mile(s):0
Sky conditions: partly cloudy
Temperature: 77 F (25 C)
Dew Point: 73 F (23 C)
Relative Humidity: 88%
Pressure (altimeter): 29.77 in. Hg (1008 hPa)
ob: AYNZ 252000Z VRB03KT 9999 FEW015 SCT045 25/23 Q1008=
cycle: 20

Station Type Date Time Source
AYNZ TAF 2015/08/19 08:15 UTC NOAA

TAF AYNZ 190550Z 1908/1920 09015KT 9999 SCT020 SCT120
FM191400 VRB03KT 9999 BKN040 Q 1011 1014 1013 1010

Example: see airport list